Time;durP1;ratioP1;P1;durP2;ratioP2;P2;SDS_P1;SDS_P2;PMS_P1;PMS_P2;Temp;Humidity;BMP_temperature;BMP_pressure;BME280_temperature;BME280_humidity;BME280_pressure;Samples;Min_cycle;Max_cycle;Signal;HPM_P1;HPM_P2
2022/09/18 06:28:26;;;;;;;2.28;1.42;;;19.70;99.90;;;;;;5109889;27;20455;-66
2022/09/18 06:30:53;;;;;;;1.50;1.00;;;19.70;99.90;;;;;;5109548;28;20227;-65
2022/09/18 06:33:20;;;;;;;5.60;1.37;;;19.70;99.90;;;;;;5109481;28;20491;-67
2022/09/18 06:35:48;;;;;;;1.60;0.90;;;19.70;99.90;;;;;;5104280;28;20816;-68
2022/09/18 06:38:15;;;;;;;5.10;1.20;;;19.70;99.90;;;;;;5089408;28;20435;-68
2022/09/18 06:40:48;;;;;;;1.90;1.10;;;19.80;99.90;;;;;;5120283;23;20848;-66
2022/09/18 06:43:15;;;;;;;2.93;1.27;;;19.80;99.90;;;;;;5080314;28;20445;-66
2022/09/18 06:45:43;;;;;;;2.47;1.30;;;19.80;99.90;;;;;;5069223;28;20538;-66
2022/09/18 06:48:10;;;;;;;1.70;1.37;;;19.80;99.90;;;;;;5068688;28;20570;-67
2022/09/18 06:50:37;;;;;;;1.00;0.90;;;19.90;99.90;;;;;;5056186;28;20484;-64
2022/09/18 06:53:04;;;;;;;5.67;1.20;;;19.90;99.90;;;;;;5048537;28;20547;-66
2022/09/18 06:55:31;;;;;;;1.90;0.87;;;20.00;99.90;;;;;;5048339;28;20475;-66
2022/09/18 06:57:59;;;;;;;1.57;0.70;;;20.00;99.90;;;;;;5048583;28;21045;-61
2022/09/18 07:00:27;;;;;;;2.83;1.10;;;20.00;99.90;;;;;;5048457;28;20560;-62
2022/09/18 07:02:57;;;;;;;1.07;1.00;;;20.00;99.90;;;;;;5048225;28;20453;-63
2022/09/18 07:05:25;;;;;;;1.07;0.97;;;20.10;99.90;;;;;;5048350;28;20470;-62
2022/09/18 07:07:52;;;;;;;1.77;1.20;;;20.10;99.90;;;;;;5048423;28;20567;-64
2022/09/18 07:10:18;;;;;;;1.30;0.80;;;20.10;99.90;;;;;;5048376;28;20537;-63
2022/09/18 07:12:47;;;;;;;1.17;0.83;;;20.10;99.90;;;;;;5048292;28;20441;-64
2022/09/18 07:15:15;;;;;;;1.00;0.70;;;20.20;99.90;;;;;;5048336;28;20452;-64
2022/09/18 07:17:42;;;;;;;1.53;1.20;;;20.20;99.90;;;;;;5048407;28;20530;-65
2022/09/18 07:20:11;;;;;;;3.30;1.73;;;20.20;99.90;;;;;;5048094;28;20969;-63
2022/09/18 07:25:17;;;;;;;2.17;0.95;;;20.10;99.90;;;;;;5089299;27;20436;-61
2022/09/18 07:27:44;;;;;;;1.40;1.27;;;20.10;99.90;;;;;;5089328;28;20297;-62
2022/09/18 07:30:12;;;;;;;3.13;1.50;;;20.20;99.90;;;;;;5089074;28;20507;-60
2022/09/18 07:32:39;;;;;;;2.20;1.47;;;20.20;99.90;;;;;;5088882;28;21018;-62
2022/09/18 07:35:06;;;;;;;2.30;1.70;;;20.20;99.90;;;;;;5089348;28;20438;-61
2022/09/18 07:37:34;;;;;;;3.53;1.60;;;20.20;99.90;;;;;;5088999;28;20532;-62
2022/09/18 07:40:00;;;;;;;1.87;1.40;;;20.20;99.90;;;;;;5069363;28;20502;-62
2022/09/18 07:42:29;;;;;;;1.23;1.13;;;20.20;99.90;;;;;;5068618;28;20878;-62
2022/09/18 07:44:56;;;;;;;1.93;1.80;;;20.20;99.90;;;;;;5068650;28;20510;-63
2022/09/18 07:47:24;;;;;;;1.90;1.17;;;20.20;99.90;;;;;;5068706;28;20506;-62
2022/09/18 07:49:51;;;;;;;4.03;1.87;;;20.20;99.90;;;;;;5085080;28;20505;-63
2022/09/18 07:52:18;;;;;;;1.60;1.20;;;20.20;99.90;;;;;;5088675;28;20454;-63
2022/09/18 07:54:45;;;;;;;2.27;1.27;;;20.20;99.90;;;;;;5088817;28;20552;-63
2022/09/18 07:57:12;;;;;;;2.60;2.40;;;20.20;99.90;;;;;;5088723;28;20455;-63
2022/09/18 07:59:40;;;;;;;1.07;0.90;;;20.20;99.90;;;;;;5088530;28;21008;-63
2022/09/18 08:02:07;;;;;;;1.27;1.17;;;20.20;99.90;;;;;;5069658;28;20458;-63
2022/09/18 08:04:34;;;;;;;3.03;1.60;;;20.20;99.90;;;;;;5068075;28;20489;-63
2022/09/18 08:07:02;;;;;;;2.80;1.30;;;20.20;99.90;;;;;;5076768;28;20477;-63
2022/09/18 08:09:30;;;;;;;2.00;1.17;;;20.20;99.90;;;;;;5086750;28;20473;-62
2022/09/18 08:11:57;;;;;;;3.47;1.90;;;20.20;99.90;;;;;;5088412;28;20528;-66
2022/09/18 08:14:24;;;;;;;2.17;1.03;;;20.30;99.90;;;;;;5088505;28;20523;-66
2022/09/18 08:16:52;;;;;;;2.20;1.20;;;20.30;99.90;;;;;;5088654;28;20473;-66
2022/09/18 08:19:19;;;;;;;1.77;1.00;;;20.40;99.90;;;;;;5074425;28;20537;-67
2022/09/18 08:21:46;;;;;;;1.47;1.47;;;20.30;99.90;;;;;;5067953;28;20492;-67
2022/09/18 08:24:13;;;;;;;1.43;0.97;;;20.30;99.90;;;;;;5068085;28;20569;-63
2022/09/18 08:26:39;;;;;;;1.17;1.00;;;20.30;99.90;;;;;;5067785;28;20483;-67
2022/09/18 08:29:07;;;;;;;1.37;1.00;;;20.40;99.90;;;;;;5068028;28;20451;-65
2022/09/18 08:31:33;;;;;;;1.40;1.30;;;20.30;99.90;;;;;;5083246;28;20481;-65
2022/09/18 08:34:02;;;;;;;2.00;1.17;;;20.30;99.90;;;;;;5088138;28;20452;-67
2022/09/18 08:36:29;;;;;;;1.40;0.90;;;20.30;99.90;;;;;;5075332;28;20549;-65
2022/09/18 08:38:56;;;;;;;1.67;1.10;;;20.30;99.90;;;;;;5074650;28;20531;-66
2022/09/18 08:41:37;;;;;;;3.00;1.30;;;20.30;99.90;;;;;;5074279;28;20556;-64
2022/09/18 08:44:09;;;;;;;1.40;1.20;;;20.30;99.90;;;;;;5070492;28;20481;-57
2022/09/18 08:46:40;;;;;;;1.53;0.93;;;20.40;99.90;;;;;;5060840;28;21043;-59
2022/09/18 08:49:22;;;;;;;1.40;1.30;;;20.40;99.90;;;;;;5074379;28;20482;-65
2022/09/18 08:51:54;;;;;;;1.53;0.83;;;20.40;99.90;;;;;;5074119;28;20452;-64
2022/09/18 08:54:28;;;;;;;0.80;0.80;;;20.50;99.90;;;;;;5054581;28;20948;-63
2022/09/18 08:56:57;;;;;;;2.07;0.93;;;20.40;99.90;;;;;;5054149;28;20940;-62
2022/09/18 08:59:34;;;;;;;2.90;1.20;;;20.40;99.90;;;;;;5053995;28;20846;-66
2022/09/18 09:02:16;;;;;;;1.37;0.93;;;20.40;99.90;;;;;;5054036;28;20451;-64
2022/09/18 09:04:45;;;;;;;3.40;1.37;;;20.50;99.90;;;;;;5055099;28;21136;-65
2022/09/18 09:07:25;;;;;;;1.57;0.90;;;20.50;99.90;;;;;;5053936;28;20940;-64
2022/09/18 09:10:27;;;;;;;4.47;1.73;;;20.50;99.90;;;;;;5053863;28;20965;-66
2022/09/18 09:13:05;;;;;;;14.20;2.60;;;20.50;99.90;;;;;;5053592;28;20538;-65
2022/09/18 09:15:39;;;;;;;6.57;1.70;;;20.40;99.90;;;;;;5053394;28;20514;-66
2022/09/18 09:18:16;;;;;;;1.27;1.03;;;20.50;99.90;;;;;;5056898;28;20717;-65
2022/09/18 09:20:51;;;;;;;1.90;1.03;;;20.40;99.90;;;;;;5054742;28;20529;-65
2022/09/18 09:23:33;;;;;;;2.00;1.57;;;20.40;99.90;;;;;;5053580;28;20461;-67
2022/09/18 09:26:05;;;;;;;3.63;3.10;;;20.40;99.90;;;;;;5053895;28;20505;-67
2022/09/18 09:28:38;;;;;;;6.80;4.03;;;20.50;99.90;;;;;;5059047;28;20533;-66
2022/09/18 09:31:09;;;;;;;2.50;2.27;;;20.50;99.90;;;;;;5073643;28;20470;-66
2022/09/18 09:33:42;;;;;;;4.60;3.63;;;20.40;99.90;;;;;;5073410;28;20453;-66
2022/09/18 09:36:14;;;;;;;4.23;3.73;;;20.40;99.90;;;;;;5073623;28;20453;-64
2022/09/18 09:38:48;;;;;;;4.40;3.27;;;20.50;99.90;;;;;;5073522;28;20531;-66
2022/09/18 09:41:24;;;;;;;5.07;3.93;;;20.50;99.90;;;;;;5062278;28;20475;-65
2022/09/18 09:43:58;;;;;;;7.80;4.90;;;20.50;99.90;;;;;;5053586;28;20541;-65
2022/09/18 09:46:43;;;;;;;4.97;3.97;;;20.60;99.90;;;;;;5053016;28;20469;-67
2022/09/18 09:49:14;;;;;;;8.77;3.60;;;20.60;99.90;;;;;;5053388;28;20501;-66
2022/09/18 09:51:53;;;;;;;7.85;3.60;;;20.60;99.90;;;;;;5053439;28;21020;-63
2022/09/18 09:54:20;;;;;;;7.03;4.17;;;20.60;99.90;;;;;;5054428;28;20249;-63
2022/09/18 09:56:55;;;;;;;4.83;2.83;;;20.70;99.90;;;;;;5054148;28;20486;-63
2022/09/18 09:59:29;;;;;;;4.90;3.63;;;20.70;99.90;;;;;;5053736;28;20813;-63
2022/09/18 10:02:19;;;;;;;3.73;3.00;;;20.70;99.90;;;;;;5054489;28;20929;-64
2022/09/18 10:04:52;;;;;;;6.38;2.75;;;20.70;99.90;;;;;;5057705;28;20515;-64
2022/09/18 10:07:26;;;;;;;4.70;2.97;;;20.70;99.90;;;;;;5058416;28;20287;-61
2022/09/18 10:10:00;;;;;;;4.90;3.50;;;20.70;99.90;;;;;;5056424;28;20467;-65
2022/09/18 10:12:37;;;;;;;4.33;2.90;;;20.70;99.90;;;;;;5057726;28;20542;-66
2022/09/18 10:15:13;;;;;;;9.13;3.33;;;20.70;99.90;;;;;;5056963;28;20529;-66
2022/09/18 10:17:41;;;;;;;8.70;3.90;;;20.70;99.90;;;;;;5067407;28;20881;-65
2022/09/18 10:20:14;;;;;;;7.23;3.17;;;20.70;99.90;;;;;;5075924;28;20496;-66
2022/09/18 10:22:43;;;;;;;4.00;2.83;;;20.70;99.90;;;;;;5074033;28;20541;-66
2022/09/18 10:25:21;;;;;;;6.83;2.63;;;20.70;99.90;;;;;;5071362;28;20536;-66
2022/09/18 10:27:48;;;;;;;4.70;2.80;;;20.70;99.90;;;;;;5072750;28;20447;-65
2022/09/18 10:30:15;;;;;;;4.13;2.73;;;20.70;99.90;;;;;;5072472;28;20538;-66
2022/09/18 10:32:42;;;;;;;4.43;2.53;;;20.70;99.90;;;;;;5070748;28;20451;-66
2022/09/18 10:35:47;;;;;;;4.93;3.77;;;20.70;99.90;;;;;;5061667;28;20504;-67
2022/09/18 10:38:33;;;;;;;5.53;3.00;;;20.70;99.90;;;;;;5068374;28;20947;-66
2022/09/18 10:41:27;;;;;;;3.43;2.43;;;20.70;99.90;;;;;;5073327;28;20784;-67
2022/09/18 10:43:58;;;;;;;5.23;2.57;;;20.70;99.90;;;;;;5067054;28;20505;-66
2022/09/18 10:46:30;;;;;;;1.73;1.30;;;20.70;99.90;;;;;;5052553;28;20547;-64
2022/09/18 10:49:01;;;;;;;2.57;1.47;;;20.60;98.80;;;;;;5052479;28;20451;-64
2022/09/18 10:51:28;;;;;;;3.43;1.10;;;20.60;98.70;;;;;;5052354;28;20563;-64
2022/09/18 10:54:08;;;;;;;1.63;1.53;;;20.50;98.60;;;;;;5052402;28;20812;-64
2022/09/18 10:56:35;;;;;;;0.80;0.80;;;20.50;98.40;;;;;;5052354;28;20455;-64
2022/09/18 10:59:34;;;;;;;1.10;1.10;;;20.50;98.90;;;;;;5051929;28;20530;-64
2022/09/18 11:02:03;;;;;;;0.97;0.97;;;20.40;98.20;;;;;;5055150;28;20473;-65
2022/09/18 11:04:32;;;;;;;1.10;1.10;;;20.30;97.90;;;;;;5072276;28;20483;-64
2022/09/18 11:07:02;;;;;;;1.20;1.10;;;20.20;97.90;;;;;;5072505;28;20449;-63
2022/09/18 11:09:36;;;;;;;1.30;1.20;;;20.20;99.00;;;;;;5072198;28;20447;-63
2022/09/18 11:12:03;;;;;;;1.10;1.10;;;20.20;99.10;;;;;;5071910;28;20533;-63
2022/09/18 11:14:38;;;;;;;1.30;1.20;;;20.20;99.10;;;;;;5063835;28;20445;-66
2022/09/18 11:17:05;;;;;;;1.33;1.17;;;20.20;99.30;;;;;;5052086;28;20454;-64
2022/09/18 11:19:34;;;;;;;3.60;1.10;;;20.10;98.70;;;;;;5051965;28;20474;-63
2022/09/18 11:22:04;;;;;;;2.93;1.33;;;20.10;98.70;;;;;;5051920;28;20897;-62
2022/09/18 11:24:34;;;;;;;0.90;0.90;;;20.10;99.10;;;;;;5051574;28;20574;-63
2022/09/18 11:27:02;;;;;;;2.00;1.20;;;20.10;99.20;;;;;;5065603;28;20453;-63
2022/09/18 11:29:31;;;;;;;2.93;1.30;;;20.00;99.10;;;;;;5072137;28;20506;-72
2022/09/18 11:32:03;;;;;;;1.77;1.40;;;20.00;98.70;;;;;;5072093;28;20443;-68
2022/09/18 11:34:33;;;;;;;1.87;1.30;;;20.10;99.10;;;;;;5064777;28;20455;-65
2022/09/18 11:37:03;;;;;;;3.03;1.10;;;20.00;99.50;;;;;;5061287;28;20451;-65
2022/09/18 11:39:36;;;;;;;1.37;1.20;;;20.00;99.40;;;;;;5071695;28;20467;-64
2022/09/18 11:42:09;;;;;;;1.73;1.10;;;20.00;99.10;;;;;;5071509;28;20446;-64
2022/09/18 11:44:36;;;;;;;1.73;1.63;;;20.00;98.70;;;;;;5064086;28;20494;-63
2022/09/18 11:47:25;;;;;;;1.77;0.80;;;20.00;99.00;;;;;;5051832;28;20529;-65
2022/09/18 11:50:00;;;;;;;1.10;1.10;;;19.90;99.20;;;;;;5051669;28;20466;-68
2022/09/18 11:52:31;;;;;;;4.17;1.43;;;19.90;98.60;;;;;;5051546;28;20450;-65
2022/09/18 11:55:06;;;;;;;1.03;1.03;;;19.90;99.60;;;;;;5051528;28;20529;-67
2022/09/18 11:57:38;;;;;;;1.70;1.00;;;19.90;99.70;;;;;;5065565;28;20481;-63
2022/09/18 12:00:07;;;;;;;1.23;1.23;;;19.90;99.60;;;;;;5052519;28;20472;-63
2022/09/18 12:02:40;;;;;;;1.43;1.33;;;19.90;99.60;;;;;;5051449;28;20450;-66
2022/09/18 12:05:17;;;;;;;0.83;0.83;;;19.90;99.90;;;;;;5051922;28;20489;-66
2022/09/18 12:07:52;;;;;;;1.73;1.40;;;19.80;99.90;;;;;;5051824;28;20444;-66
2022/09/18 12:10:29;;;;;;;1.47;1.47;;;19.80;99.90;;;;;;5072622;28;20228;-65
2022/09/18 12:13:18;;;;;;;1.33;1.23;;;19.80;99.90;;;;;;5075246;28;20533;-67
2022/09/18 12:15:50;;;;;;;1.30;1.20;;;19.90;99.90;;;;;;5075648;28;20446;-66
2022/09/18 12:18:21;;;;;;;2.27;1.73;;;19.80;99.90;;;;;;5075216;28;20453;-64
2022/09/18 12:20:52;;;;;;;1.60;1.20;;;19.80;99.90;;;;;;5063186;28;20537;-65
2022/09/18 12:23:23;;;;;;;1.80;1.43;;;19.70;99.90;;;;;;5054885;28;20688;-67
2022/09/18 12:26:04;;;;;;;2.93;2.70;;;19.70;99.90;;;;;;5055398;28;20566;-66
2022/09/18 12:28:44;;;;;;;2.10;1.20;;;19.60;99.90;;;;;;5055553;28;20834;-64
2022/09/18 12:31:16;;;;;;;1.73;1.63;;;19.60;99.90;;;;;;5055072;28;21232;-66
2022/09/18 12:33:53;;;;;;;1.40;1.13;;;19.60;99.90;;;;;;5055089;28;20436;-68
2022/09/18 12:36:49;;;;;;;1.60;1.00;;;19.60;99.90;;;;;;5055488;28;20460;-71
2022/09/18 12:39:31;;;;;;;1.80;1.37;;;19.60;99.90;;;;;;5055568;28;20538;-69
2022/09/18 12:42:09;;;;;;;2.10;0.83;;;19.70;99.90;;;;;;5054671;28;20457;-68
2022/09/18 12:44:58;;;;;;;14.23;1.57;;;19.70;99.90;;;;;;5054987;28;20469;-69
2022/09/18 12:47:40;;;;;;;0.80;0.70;;;19.80;99.90;;;;;;5054940;28;20850;-69
2022/09/18 12:50:26;;;;;;;1.00;0.90;;;19.80;99.90;;;;;;5054250;28;20860;-69
2022/09/18 12:53:10;;;;;;;2.70;1.30;;;19.80;99.90;;;;;;5054195;28;20451;-69
2022/09/18 12:55:56;;;;;;;1.43;1.03;;;19.80;99.90;;;;;;5054351;28;20530;-67
2022/09/18 12:58:52;;;;;;;1.37;1.27;;;19.80;99.90;;;;;;5054291;28;20829;-64
2022/09/18 13:01:27;;;;;;;48.00;30.70;;;19.80;99.90;;;;;;5053914;28;20470;-64
2022/09/18 13:04:03;;;;;;;123.03;70.00;;;19.80;99.90;;;;;;5053933;28;20468;-64
2022/09/18 13:06:39;;;;;;;124.10;77.47;;;19.80;99.90;;;;;;5053888;28;20594;-64
2022/09/18 13:09:17;;;;;;;145.67;88.47;;;19.80;99.90;;;;;;5053431;28;20552;-64
2022/09/18 13:11:48;;;;;;;145.13;107.20;;;19.80;99.90;;;;;;5053519;28;20449;-64
2022/09/18 13:14:20;;;;;;;151.40;115.43;;;19.80;99.90;;;;;;5053631;28;20857;-64
2022/09/18 13:16:50;;;;;;;164.60;123.80;;;19.80;99.90;;;;;;5053618;28;20443;-64
2022/09/18 13:19:22;;;;;;;181.33;135.37;;;19.80;99.90;;;;;;5053486;28;20448;-63
2022/09/18 13:21:51;;;;;;;167.33;117.73;;;19.80;99.90;;;;;;5052981;28;20872;-64
2022/09/18 13:24:21;;;;;;;180.30;129.80;;;19.80;99.90;;;;;;5053202;28;20465;-63
2022/09/18 13:26:49;;;;;;;213.00;153.97;;;19.80;99.90;;;;;;5053265;28;20483;-63
2022/09/18 13:29:55;;;;;;;220.70;161.83;;;19.80;99.90;;;;;;5053269;28;20538;-64
2022/09/18 13:32:36;;;;;;;239.13;178.30;;;19.80;99.90;;;;;;5052837;28;20455;-64
2022/09/18 13:35:06;;;;;;;211.73;156.60;;;19.80;99.90;;;;;;5053292;28;20450;-62
2022/09/18 13:37:33;;;;;;;244.30;178.63;;;19.80;99.90;;;;;;5043971;22;20495;-63
2022/09/18 13:40:02;;;;;;;249.60;197.97;;;19.80;99.90;;;;;;5033236;28;20783;-64
2022/09/18 13:42:31;;;;;;;245.80;190.67;;;19.80;99.90;;;;;;5032800;28;20452;-64
2022/09/18 13:45:05;;;;;;;238.57;191.90;;;19.80;99.90;;;;;;5033054;28;20485;-63
2022/09/18 13:47:39;;;;;;;224.20;186.80;;;19.80;99.90;;;;;;5033094;28;20974;-63
2022/09/18 13:50:17;;;;;;;223.90;181.00;;;19.80;99.90;;;;;;5032986;28;20459;-64
2022/09/18 13:52:44;;;;;;;205.07;179.67;;;19.80;99.90;;;;;;5012996;28;20459;-64
2022/09/18 13:55:48;;;;;;;200.27;169.87;;;19.80;99.90;;;;;;5013143;28;20492;-64
2022/09/18 13:58:35;;;;;;;183.30;142.40;;;19.80;99.90;;;;;;5013172;28;20464;-64
2022/09/18 14:01:04;;;;;;;176.83;132.90;;;19.80;99.90;;;;;;5013000;28;20444;-64
2022/09/18 14:03:38;;;;;;;151.70;134.13;;;19.80;99.90;;;;;;5022278;28;20455;-64
2022/09/18 14:06:45;;;;;;;153.43;124.13;;;19.80;99.90;;;;;;5032628;28;20499;-64
2022/09/18 14:09:46;;;;;;;147.17;114.60;;;19.80;99.90;;;;;;5032718;28;20443;-63
2022/09/18 14:12:14;;;;;;;124.23;99.47;;;19.80;99.90;;;;;;5032467;28;20955;-64
2022/09/18 14:14:42;;;;;;;123.90;95.10;;;19.80;99.90;;;;;;5032350;28;20445;-63
2022/09/18 14:17:14;;;;;;;124.97;89.17;;;19.80;99.90;;;;;;5032625;28;20468;-64
2022/09/18 14:19:48;;;;;;;108.60;85.67;;;19.80;99.90;;;;;;5032547;28;20479;-63
2022/09/18 14:22:25;;;;;;;107.20;85.47;;;19.80;99.90;;;;;;5032380;28;20453;-64
2022/09/18 14:24:58;;;;;;;97.97;87.23;;;19.80;99.90;;;;;;5032807;28;20813;-64
2022/09/18 14:27:35;;;;;;;96.87;77.83;;;19.80;99.90;;;;;;5032145;28;20487;-64
2022/09/18 14:30:12;;;;;;;92.50;67.07;;;19.80;99.90;;;;;;5032336;28;20447;-63
2022/09/18 14:32:43;;;;;;;78.53;63.77;;;19.80;99.90;;;;;;5031707;28;20861;-63
2022/09/18 14:35:26;;;;;;;79.27;60.00;;;19.80;99.90;;;;;;5032289;28;20459;-64
2022/09/18 14:37:53;;;;;;;71.80;55.70;;;19.80;99.90;;;;;;5032213;28;20982;-64
2022/09/18 14:40:22;;;;;;;66.87;52.90;;;19.80;99.90;;;;;;5031713;28;20480;-63
2022/09/18 14:42:49;;;;;;;63.27;51.00;;;19.80;99.90;;;;;;5031480;28;20456;-63
2022/09/18 14:45:25;;;;;;;59.17;47.00;;;19.80;99.90;;;;;;5031965;28;20801;-63
2022/09/18 14:47:54;;;;;;;60.67;45.83;;;19.80;99.90;;;;;;5031916;28;20478;-63
2022/09/18 14:50:32;;;;;;;55.50;42.20;;;19.80;99.90;;;;;;5031747;28;21011;-63
2022/09/18 14:53:01;;;;;;;58.63;41.80;;;19.80;99.90;;;;;;5031710;28;20526;-63
2022/09/18 14:55:33;;;;;;;52.87;38.67;;;19.80;99.90;;;;;;5031876;28;20448;-64
2022/09/18 14:58:04;;;;;;;48.63;38.10;;;19.80;99.90;;;;;;5031852;28;20810;-62
2022/09/18 15:00:33;;;;;;;45.67;34.67;;;19.80;99.90;;;;;;5031656;28;20456;-63
2022/09/18 15:03:04;;;;;;;43.13;34.20;;;19.80;99.90;;;;;;5031539;28;20446;-63
2022/09/18 15:05:33;;;;;;;36.57;32.67;;;19.80;99.90;;;;;;5031835;28;20593;-64
2022/09/18 15:08:03;;;;;;;37.23;32.77;;;19.80;99.90;;;;;;5031799;28;20534;-63
2022/09/18 15:10:37;;;;;;;35.90;30.87;;;19.80;99.90;;;;;;5031389;28;20539;-63
2022/09/18 15:13:07;;;;;;;35.63;28.83;;;19.80;99.90;;;;;;5031515;28;20534;-63
2022/09/18 15:15:37;;;;;;;29.97;25.20;;;19.80;99.90;;;;;;5031623;28;21013;-63
2022/09/18 15:18:05;;;;;;;29.80;26.60;;;19.80;99.90;;;;;;5031673;28;20898;-63
2022/09/18 15:20:33;;;;;;;27.17;24.37;;;19.80;99.90;;;;;;5031565;28;20458;-63
2022/09/18 15:23:00;;;;;;;26.90;21.67;;;19.80;99.90;;;;;;5031149;28;20452;-63
2022/09/18 15:25:30;;;;;;;24.70;19.43;;;19.80;99.90;;;;;;5031479;28;20451;-63
2022/09/18 15:28:01;;;;;;;24.00;21.00;;;19.80;99.90;;;;;;5031505;28;20452;-63
2022/09/18 15:30:28;;;;;;;19.80;16.27;;;19.80;99.90;;;;;;5031507;28;20801;-63
2022/09/18 15:32:59;;;;;;;18.53;16.50;;;19.80;99.90;;;;;;5031022;28;20877;-63
2022/09/18 15:35:28;;;;;;;20.57;14.93;;;19.80;99.90;;;;;;5011606;28;20491;-63
2022/09/18 15:37:59;;;;;;;16.70;13.50;;;19.80;99.90;;;;;;5011552;28;20540;-62
2022/09/18 15:40:29;;;;;;;19.10;12.63;;;19.80;99.90;;;;;;5011826;28;20445;-63
2022/09/18 15:42:58;;;;;;;21.03;12.97;;;19.80;99.90;;;;;;5011291;28;20453;-64
2022/09/18 15:45:27;;;;;;;15.37;13.03;;;19.80;99.90;;;;;;5012835;28;20491;-63
2022/09/18 15:47:57;;;;;;;16.23;13.47;;;19.80;99.90;;;;;;5021774;28;20551;-62
2022/09/18 15:50:47;;;;;;;11.50;10.30;;;19.80;99.90;;;;;;5035076;28;20448;-63
2022/09/18 15:53:37;;;;;;;15.07;11.23;;;19.80;99.90;;;;;;5035156;28;20450;-63
2022/09/18 15:56:17;;;;;;;10.47;8.23;;;19.80;99.90;;;;;;5031825;28;20847;-63
2022/09/18 15:58:50;;;;;;;11.60;8.43;;;19.80;99.90;;;;;;5035156;28;20987;-62
2022/09/18 16:01:21;;;;;;;10.57;8.77;;;19.80;99.90;;;;;;5034653;28;20447;-63
2022/09/18 16:03:56;;;;;;;8.43;6.47;;;19.80;99.90;;;;;;5034987;28;20447;-63
2022/09/18 16:06:28;;;;;;;8.23;6.70;;;19.80;99.90;;;;;;5034893;28;20858;-63
2022/09/18 16:08:57;;;;;;;8.50;7.63;;;19.70;99.90;;;;;;5034608;28;20459;-63
2022/09/18 16:11:42;;;;;;;7.37;6.43;;;19.70;99.90;;;;;;5034709;28;20451;-63
2022/09/18 16:14:37;;;;;;;8.43;5.77;;;19.70;99.90;;;;;;5034765;28;20529;-63
2022/09/18 16:17:35;;;;;;;6.13;5.07;;;19.70;99.90;;;;;;5034409;28;20814;-63
2022/09/18 16:20:22;;;;;;;6.77;5.73;;;19.70;99.90;;;;;;5034236;28;20965;-63
2022/09/18 16:22:50;;;;;;;6.33;5.70;;;19.70;99.90;;;;;;5034479;28;20802;-62
2022/09/18 16:25:23;;;;;;;7.67;5.07;;;19.70;99.90;;;;;;5034763;28;20530;-63
2022/09/18 16:27:53;;;;;;;6.53;4.93;;;19.70;99.90;;;;;;5034538;28;20569;-63
2022/09/18 16:30:20;;;;;;;5.57;4.83;;;19.70;99.90;;;;;;5034681;28;20474;-63
2022/09/18 16:32:47;;;;;;;3.87;3.57;;;19.70;99.90;;;;;;5034427;28;20933;-63
2022/09/18 16:35:15;;;;;;;6.37;4.77;;;19.70;99.90;;;;;;5034350;28;20452;-62
2022/09/18 16:37:43;;;;;;;6.23;4.57;;;19.70;99.90;;;;;;5034280;28;20476;-63
2022/09/18 16:40:24;;;;;;;4.30;3.77;;;19.70;99.90;;;;;;5034359;28;20540;-63
2022/09/18 16:42:57;;;;;;;4.03;3.63;;;19.70;99.90;;;;;;5034287;28;20455;-63
2022/09/18 16:45:25;;;;;;;2.97;2.77;;;19.70;99.90;;;;;;5034173;28;20508;-62
2022/09/18 16:47:54;;;;;;;3.17;2.93;;;19.70;99.90;;;;;;5034156;28;20509;-63
2022/09/18 16:50:23;;;;;;;4.27;2.90;;;19.70;99.90;;;;;;5034216;28;20447;-63
2022/09/18 16:52:50;;;;;;;2.87;2.60;;;19.70;99.90;;;;;;5033857;28;20511;-63
2022/09/18 16:55:17;;;;;;;3.27;2.97;;;19.70;99.90;;;;;;5033917;28;20536;-63
2022/09/18 16:57:45;;;;;;;3.03;2.77;;;19.70;99.90;;;;;;5033821;28;20518;-62
2022/09/18 17:00:14;;;;;;;4.03;2.80;;;19.70;99.90;;;;;;5033325;28;20447;-63
2022/09/18 17:02:40;;;;;;;2.67;2.47;;;19.70;99.90;;;;;;5033763;28;20451;-65
2022/09/18 17:05:08;;;;;;;7.77;3.10;;;19.70;99.90;;;;;;5033936;28;20455;-62
2022/09/18 17:07:35;;;;;;;6.00;2.83;;;19.70;99.90;;;;;;5033850;28;20899;-62
2022/09/18 17:10:02;;;;;;;4.00;2.57;;;19.70;99.90;;;;;;5033851;28;20456;-61
2022/09/18 17:12:29;;;;;;;2.97;2.63;;;19.70;99.90;;;;;;5033348;28;20551;-62
2022/09/18 17:14:57;;;;;;;2.80;2.60;;;19.70;99.90;;;;;;5033610;28;20810;-62
2022/09/18 17:17:24;;;;;;;6.20;3.90;;;19.70;99.90;;;;;;5033796;28;20555;-62
2022/09/18 17:19:51;;;;;;;1.60;1.50;;;19.70;99.90;;;;;;5033757;28;20539;-62
2022/09/18 17:22:18;;;;;;;2.87;2.07;;;19.70;99.90;;;;;;5033379;28;21007;-62
2022/09/18 17:24:45;;;;;;;1.90;1.80;;;19.70;99.90;;;;;;5033648;28;20536;-62
2022/09/18 17:27:12;;;;;;;2.10;1.90;;;19.70;99.90;;;;;;5033084;28;20484;-61
2022/09/18 17:29:39;;;;;;;2.47;2.27;;;19.70;99.90;;;;;;5033606;28;20448;-62
2022/09/18 17:32:08;;;;;;;2.07;1.97;;;19.70;99.90;;;;;;5033397;28;20444;-62
2022/09/18 17:34:34;;;;;;;1.80;1.70;;;19.70;99.90;;;;;;5033357;28;20450;-62
2022/09/18 17:37:02;;;;;;;3.97;1.70;;;19.70;99.90;;;;;;5033185;28;20468;-62
2022/09/18 17:39:28;;;;;;;3.93;2.20;;;19.70;99.90;;;;;;5033379;28;20452;-62
2022/09/18 17:41:57;;;;;;;1.93;1.83;;;19.70;99.90;;;;;;5032838;28;20451;-62
2022/09/18 17:44:26;;;;;;;3.03;2.00;;;19.70;99.90;;;;;;5033079;28;20453;-63
2022/09/18 17:46:53;;;;;;;2.73;1.80;;;19.70;99.90;;;;;;5032967;28;20486;-62
2022/09/18 17:49:21;;;;;;;1.57;1.47;;;19.70;99.90;;;;;;5033058;28;20962;-62
2022/09/18 17:51:48;;;;;;;2.27;1.93;;;19.70;99.90;;;;;;5032960;28;20458;-62
2022/09/18 17:54:15;;;;;;;3.30;2.00;;;19.70;99.90;;;;;;5032685;28;20811;-62
2022/09/18 17:56:43;;;;;;;1.47;1.47;;;19.70;99.90;;;;;;5032897;28;20471;-62
2022/09/18 17:59:12;;;;;;;1.20;1.10;;;19.60;99.90;;;;;;5032787;28;20451;-63
2022/09/18 18:01:44;;;;;;;1.57;1.40;;;19.60;99.90;;;;;;5032771;28;20510;-62
2022/09/18 18:04:12;;;;;;;1.20;1.10;;;19.60;99.90;;;;;;5032751;28;20972;-63
2022/09/18 18:06:40;;;;;;;1.97;1.60;;;19.60;99.90;;;;;;5032602;28;20498;-63
2022/09/18 18:09:08;;;;;;;1.80;1.70;;;19.60;99.90;;;;;;5031617;28;20539;-62
2022/09/18 18:11:36;;;;;;;1.97;1.23;;;19.70;99.90;;;;;;5032427;28;20922;-62
2022/09/18 18:14:04;;;;;;;1.03;1.03;;;19.60;99.90;;;;;;5032664;28;20933;-62
2022/09/18 18:16:33;;;;;;;1.70;1.53;;;19.60;99.90;;;;;;5032133;28;20557;-63
2022/09/18 18:19:01;;;;;;;1.00;1.00;;;19.60;99.90;;;;;;5032540;28;20455;-63
2022/09/18 18:21:29;;;;;;;1.03;0.93;;;19.60;99.90;;;;;;5032401;28;20447;-62
2022/09/18 18:23:58;;;;;;;2.17;1.83;;;19.60;99.90;;;;;;5032126;28;20819;-62
2022/09/18 18:26:26;;;;;;;1.73;1.67;;;19.60;99.90;;;;;;5032322;28;20985;-63
2022/09/18 18:28:55;;;;;;;1.00;1.00;;;19.60;99.90;;;;;;5032361;28;20449;-63
2022/09/18 18:31:24;;;;;;;1.63;0.90;;;19.60;99.90;;;;;;5032084;28;20478;-62
2022/09/18 18:33:52;;;;;;;1.20;1.20;;;19.60;99.90;;;;;;5032088;28;20821;-62
2022/09/18 18:36:21;;;;;;;1.43;1.43;;;19.60;99.90;;;;;;5031820;28;20476;-62
2022/09/18 18:38:50;;;;;;;0.97;0.90;;;19.60;99.90;;;;;;5030824;28;20453;-63
2022/09/18 18:41:20;;;;;;;6.83;1.00;;;19.60;99.90;;;;;;5030924;28;20542;-62
2022/09/18 18:43:51;;;;;;;1.13;1.13;;;19.60;99.90;;;;;;5032090;28;20447;-62
2022/09/18 18:46:18;;;;;;;1.00;1.00;;;19.60;99.90;;;;;;5032015;28;20471;-63
2022/09/18 18:48:47;;;;;;;1.13;0.90;;;19.60;99.90;;;;;;5031806;28;20487;-63
2022/09/18 18:51:16;;;;;;;1.80;0.97;;;19.60;99.90;;;;;;5031948;28;20544;-63
2022/09/18 18:53:43;;;;;;;1.60;0.90;;;19.60;99.90;;;;;;5032113;28;20495;-63
2022/09/18 18:56:12;;;;;;;2.40;1.30;;;19.60;99.90;;;;;;5031925;28;20473;-64
2022/09/18 18:58:42;;;;;;;1.13;1.10;;;19.60;99.90;;;;;;5031898;28;21061;-62
2022/09/18 19:01:13;;;;;;;1.53;1.00;;;19.60;99.90;;;;;;5032039;28;20571;-63
2022/09/18 19:03:42;;;;;;;1.80;0.93;;;19.60;99.90;;;;;;5031590;28;20516;-62
2022/09/18 19:06:10;;;;;;;0.67;0.67;;;19.60;99.90;;;;;;5031783;28;20472;-63
2022/09/18 19:08:37;;;;;;;0.90;0.90;;;19.60;99.90;;;;;;5031615;28;20483;-62
2022/09/18 19:11:05;;;;;;;1.00;1.00;;;19.60;99.90;;;;;;5031576;28;20551;-63
2022/09/18 19:13:41;;;;;;;0.93;0.80;;;19.60;99.90;;;;;;5031606;28;20455;-62
2022/09/18 19:16:10;;;;;;;0.63;0.63;;;19.60;99.90;;;;;;5031093;28;21026;-63
2022/09/18 19:18:37;;;;;;;0.63;0.63;;;19.60;99.90;;;;;;5031725;28;20543;-63
2022/09/18 19:21:05;;;;;;;0.97;0.97;;;19.60;99.90;;;;;;5031631;28;20451;-63
2022/09/18 19:23:32;;;;;;;1.20;1.10;;;19.60;99.90;;;;;;5031138;28;20451;-63
2022/09/18 19:26:01;;;;;;;0.80;0.80;;;19.60;99.90;;;;;;5031298;28;20530;-63
2022/09/18 19:28:28;;;;;;;0.70;0.70;;;19.60;99.90;;;;;;5031366;28;20495;-63
2022/09/18 19:31:02;;;;;;;0.73;0.73;;;19.60;99.90;;;;;;5031450;28;20450;-63
2022/09/18 19:33:31;;;;;;;1.57;1.20;;;19.60;99.90;;;;;;5031308;28;20452;-65
2022/09/18 19:36:03;;;;;;;2.00;0.73;;;19.60;99.90;;;;;;5031819;28;20514;-66